createdAt,value
2023-04-10T00:03:16.440Z,6.70
2023-04-10T00:21:54.679Z,10.90
2023-04-10T00:40:33.431Z,6.40
2023-04-10T00:59:11.879Z,5.20
2023-04-10T01:17:52.577Z,3.40
2023-04-10T01:36:29.521Z,3.90
2023-04-10T01:55:08.729Z,4.30
2023-04-10T02:13:47.200Z,4.10
2023-04-10T02:51:05.710Z,3.20
2023-04-10T03:09:43.601Z,4.60
2023-04-10T03:28:22.763Z,5.60
2023-04-10T03:47:02.991Z,7.70
2023-04-10T04:05:42.099Z,9.60
2023-04-10T04:24:21.562Z,9.40
2023-04-10T04:43:00.636Z,8.50
2023-04-10T05:01:40.863Z,7.70
2023-04-10T05:20:20.696Z,8.90
2023-04-10T05:39:01.780Z,9.40
2023-04-10T05:57:44.298Z,4.00
2023-04-10T06:16:24.874Z,7.80
2023-04-10T06:35:05.815Z,7.00
2023-04-10T06:53:44.660Z,5.30
2023-04-10T07:12:24.870Z,3.20
2023-04-10T07:31:06.700Z,2.80
2023-04-10T07:49:43.464Z,3.80
2023-04-10T08:08:25.464Z,3.40
2023-04-10T09:04:25.739Z,4.00
2023-04-10T09:23:08.546Z,4.40
2023-04-10T09:41:48.069Z,3.10
2023-04-10T10:00:31.669Z,2.90
2023-04-10T10:19:20.308Z,2.90
2023-04-10T10:38:09.967Z,1.60
2023-04-10T10:56:59.878Z,1.70
2023-04-10T11:15:44.765Z,1.40
2023-04-10T11:53:20.205Z,1.50
2023-04-10T12:12:02.165Z,1.60
2023-04-10T12:30:45.997Z,1.60
2023-04-10T12:49:28.913Z,1.00
2023-04-10T13:08:10.599Z,1.30
2023-04-10T13:45:42.446Z,1.40
2023-04-10T14:04:20.846Z,1.30
2023-04-10T14:23:01.214Z,1.10
2023-04-10T14:41:45.694Z,1.00
2023-04-10T15:00:31.174Z,1.10
2023-04-10T15:19:07.973Z,1.30
2023-04-10T15:56:29.654Z,0.80
2023-04-10T16:15:06.039Z,0.70
2023-04-10T16:33:44.568Z,1.10
2023-04-10T16:52:19.903Z,0.70
2023-04-10T17:10:49.914Z,2.00
2023-04-10T17:29:11.887Z,3.70
2023-04-10T18:06:01.199Z,1.70
2023-04-10T18:24:35.663Z,3.40
2023-04-10T18:43:12.045Z,2.50
2023-04-10T19:01:49.677Z,2.80
2023-04-10T19:20:49.583Z,1.70
2023-04-10T19:39:05.894Z,2.30
2023-04-10T19:57:37.266Z,2.50
2023-04-10T20:16:15.917Z,3.10
2023-04-10T20:34:52.039Z,2.30
2023-04-10T20:53:30.732Z,2.80
2023-04-10T21:12:08.321Z,2.20
2023-04-10T21:30:46.641Z,2.50
2023-04-10T22:08:02.265Z,2.40
2023-04-10T22:26:43.860Z,2.30
2023-04-10T22:45:17.432Z,2.30
2023-04-10T23:03:55.778Z,2.40
2023-04-10T23:22:34.464Z,2.30
2023-04-10T23:41:13.293Z,2.30
2023-04-10T23:59:51.049Z,2.60
